sensor_id;sensor_type;location;lat;lon;timestamp;pressure;altitude;pressure_sealevel;temperature;humidity
32237;BME280;18726;44.732;10.550;2023-02-14T06:52:11;103034.63;;;4.43;100.00
32237;BME280;18726;44.732;10.550;2023-02-14T06:55:18;103047.78;;;5.00;100.00
32237;BME280;18726;44.732;10.550;2023-02-14T06:58:22;103043.19;;;5.71;100.00
32237;BME280;18726;44.732;10.550;2023-02-14T07:01:26;103049.75;;;6.49;100.00
32237;BME280;18726;44.732;10.550;2023-02-14T07:04:30;103062.00;;;7.24;100.00
32237;BME280;18726;44.732;10.550;2023-02-14T07:07:33;103055.13;;;7.94;100.00
32237;BME280;18726;44.732;10.550;2023-02-14T07:10:37;103062.63;;;8.73;94.29
32237;BME280;18726;44.732;10.550;2023-02-14T07:13:41;103066.50;;;9.27;88.85
32237;BME280;18726;44.732;10.550;2023-02-14T07:16:46;103069.66;;;9.49;84.40
32237;BME280;18726;44.732;10.550;2023-02-14T07:19:50;103058.31;;;9.81;81.18
32237;BME280;18726;44.732;10.550;2023-02-14T07:22:53;103068.59;;;10.18;80.31
32237;BME280;18726;44.732;10.550;2023-02-14T07:25:57;103063.88;;;10.63;76.44
32237;BME280;18726;44.732;10.550;2023-02-14T07:29:01;103062.53;;;10.60;74.72
32237;BME280;18726;44.732;10.550;2023-02-14T07:32:05;103061.97;;;11.48;72.58
32237;BME280;18726;44.732;10.550;2023-02-14T07:35:08;103072.16;;;12.13;69.91
32237;BME280;18726;44.732;10.550;2023-02-14T07:38:12;103053.13;;;11.94;69.18
32237;BME280;18726;44.732;10.550;2023-02-14T07:41:16;103073.47;;;12.48;69.26
32237;BME280;18726;44.732;10.550;2023-02-14T07:44:20;103079.53;;;13.99;62.81
32237;BME280;18726;44.732;10.550;2023-02-14T07:47:24;103083.50;;;15.17;58.21
32237;BME280;18726;44.732;10.550;2023-02-14T07:50:28;103089.34;;;16.28;53.26
32237;BME280;18726;44.732;10.550;2023-02-14T07:53:32;103090.75;;;17.69;56.83
32237;BME280;18726;44.732;10.550;2023-02-14T07:56:36;103081.38;;;19.45;46.96
32237;BME280;18726;44.732;10.550;2023-02-14T07:59:40;103086.19;;;21.11;43.34
32237;BME280;18726;44.732;10.550;2023-02-14T08:02:43;103084.72;;;22.29;39.45
32237;BME280;18726;44.732;10.550;2023-02-14T08:05:48;103085.97;;;24.31;39.47
32237;BME280;18726;44.732;10.550;2023-02-14T08:08:59;103087.69;;;25.63;35.49
32237;BME280;18726;44.732;10.550;2023-02-14T08:12:03;103082.69;;;26.85;35.18
32237;BME280;18726;44.732;10.550;2023-02-14T08:15:31;103091.38;;;28.17;33.17
32237;BME280;18726;44.732;10.550;2023-02-14T08:18:53;103079.94;;;29.32;31.77
32237;BME280;18726;44.732;10.550;2023-02-14T08:21:58;103075.78;;;28.23;29.66
32237;BME280;18726;44.732;10.550;2023-02-14T08:25:01;103071.97;;;27.96;30.31
32237;BME280;18726;44.732;10.550;2023-02-14T08:28:06;103079.34;;;28.28;29.22
32237;BME280;18726;44.732;10.550;2023-02-14T08:31:11;103067.28;;;28.34;31.18
32237;BME280;18726;44.732;10.550;2023-02-14T08:34:15;103063.41;;;28.21;30.19
32237;BME280;18726;44.732;10.550;2023-02-14T08:37:19;103046.63;;;28.25;30.15
32237;BME280;18726;44.732;10.550;2023-02-14T08:40:24;103051.44;;;28.65;28.00
32237;BME280;18726;44.732;10.550;2023-02-14T08:43:27;103045.19;;;29.60;28.33
32237;BME280;18726;44.732;10.550;2023-02-14T08:46:31;103046.91;;;28.78;28.14
32237;BME280;18726;44.732;10.550;2023-02-14T08:49:35;103040.16;;;29.13;29.96
32237;BME280;18726;44.732;10.550;2023-02-14T08:52:39;103046.59;;;28.69;29.41
32237;BME280;18726;44.732;10.550;2023-02-14T08:55:44;103048.88;;;29.53;26.95
32237;BME280;18726;44.732;10.550;2023-02-14T08:58:51;103043.50;;;30.19;28.58
32237;BME280;18726;44.732;10.550;2023-02-14T09:01:55;103036.34;;;31.05;27.65
32237;BME280;18726;44.732;10.550;2023-02-14T09:04:59;103026.06;;;30.55;26.11
32237;BME280;18726;44.732;10.550;2023-02-14T09:08:03;103024.13;;;30.29;27.57
32237;BME280;18726;44.732;10.550;2023-02-14T09:11:07;103034.91;;;31.36;26.17
32237;BME280;18726;44.732;10.550;2023-02-14T09:14:11;103046.56;;;31.91;25.21
32237;BME280;18726;44.732;10.550;2023-02-14T09:17:15;103051.03;;;32.20;24.37
32237;BME280;18726;44.732;10.550;2023-02-14T09:20:20;103043.16;;;32.32;25.13
32237;BME280;18726;44.732;10.550;2023-02-14T09:23:24;103033.34;;;32.98;24.11
32237;BME280;18726;44.732;10.550;2023-02-14T09:26:28;103034.16;;;32.37;23.39
32237;BME280;18726;44.732;10.550;2023-02-14T09:29:32;103037.97;;;33.33;24.52
32237;BME280;18726;44.732;10.550;2023-02-14T09:32:36;103036.72;;;32.47;24.47
32237;BME280;18726;44.732;10.550;2023-02-14T09:35:40;103035.94;;;33.05;24.19
32237;BME280;18726;44.732;10.550;2023-02-14T09:39:03;103023.19;;;31.41;24.52
32237;BME280;18726;44.732;10.550;2023-02-14T09:45:50;103022.75;;;33.56;24.29
32237;BME280;18726;44.732;10.550;2023-02-14T09:48:56;103016.13;;;35.35;22.62
32237;BME280;18726;44.732;10.550;2023-02-14T09:52:02;103022.41;;;36.83;21.69
32237;BME280;18726;44.732;10.550;2023-02-14T09:55:13;103017.41;;;37.30;21.07
32237;BME280;18726;44.732;10.550;2023-02-14T09:58:22;103021.72;;;37.91;20.46
32237;BME280;18726;44.732;10.550;2023-02-14T10:05:33;103017.28;;;38.23;20.60
32237;BME280;18726;44.732;10.550;2023-02-14T10:12:03;103020.16;;;39.06;19.46
32237;BME280;18726;44.732;10.550;2023-02-14T10:15:22;103013.88;;;39.02;20.05
32237;BME280;18726;44.732;10.550;2023-02-14T10:18:45;103005.47;;;39.22;18.97
32237;BME280;18726;44.732;10.550;2023-02-14T10:22:02;103004.88;;;38.89;19.29
32237;BME280;18726;44.732;10.550;2023-02-14T10:25:19;102999.31;;;37.60;21.29
32237;BME280;18726;44.732;10.550;2023-02-14T10:28:33;102986.72;;;37.19;20.81
32237;BME280;18726;44.732;10.550;2023-02-14T10:32:00;102978.72;;;35.31;21.28
32237;BME280;18726;44.732;10.550;2023-02-14T10:52:00;102934.31;;;27.85;29.37
32237;BME280;18726;44.732;10.550;2023-02-14T10:55:12;102921.91;;;27.34;30.88
32237;BME280;18726;44.732;10.550;2023-02-14T10:58:20;102917.06;;;27.42;31.01
32237;BME280;18726;44.732;10.550;2023-02-14T11:01:24;102919.47;;;27.40;32.23
32237;BME280;18726;44.732;10.550;2023-02-14T11:04:29;102913.59;;;27.20;30.28
32237;BME280;18726;44.732;10.550;2023-02-14T11:07:33;102909.16;;;27.30;31.61
32237;BME280;18726;44.732;10.550;2023-02-14T11:10:37;102899.38;;;26.86;31.29
32237;BME280;18726;44.732;10.550;2023-02-14T11:13:41;102887.53;;;26.68;31.23
32237;BME280;18726;44.732;10.550;2023-02-14T11:16:46;102873.72;;;26.04;32.02
32237;BME280;18726;44.732;10.550;2023-02-14T11:19:59;102872.94;;;25.96;34.25
32237;BME280;18726;44.732;10.550;2023-02-14T11:23:19;102857.81;;;25.62;32.83
32237;BME280;18726;44.732;10.550;2023-02-14T11:26:32;102861.69;;;25.00;32.36
32237;BME280;18726;44.732;10.550;2023-02-14T11:32:48;102855.25;;;24.85;34.61
32237;BME280;18726;44.732;10.550;2023-02-14T11:35:57;102843.00;;;24.17;33.45
32237;BME280;18726;44.732;10.550;2023-02-14T11:45:45;102821.59;;;24.21;33.92
32237;BME280;18726;44.732;10.550;2023-02-14T11:49:03;102815.03;;;23.89;33.51
32237;BME280;18726;44.732;10.550;2023-02-14T11:52:09;102811.53;;;23.99;36.99
32237;BME280;18726;44.732;10.550;2023-02-14T11:55:27;102803.56;;;23.98;36.52
32237;BME280;18726;44.732;10.550;2023-02-14T11:58:46;102799.22;;;23.97;36.94
32237;BME280;18726;44.732;10.550;2023-02-14T12:01:51;102793.94;;;23.77;38.49
32237;BME280;18726;44.732;10.550;2023-02-14T12:04:59;102797.41;;;23.64;37.66
32237;BME280;18726;44.732;10.550;2023-02-14T12:08:05;102795.34;;;23.13;36.33
32237;BME280;18726;44.732;10.550;2023-02-14T12:11:21;102792.25;;;23.21;40.30
32237;BME280;18726;44.732;10.550;2023-02-14T12:14:28;102789.72;;;23.02;40.02
32237;BME280;18726;44.732;10.550;2023-02-14T12:17:36;102784.16;;;23.02;38.79
32237;BME280;18726;44.732;10.550;2023-02-14T12:30:58;102760.63;;;22.52;40.67
32237;BME280;18726;44.732;10.550;2023-02-14T12:34:02;102753.41;;;22.44;37.22
32237;BME280;18726;44.732;10.550;2023-02-14T12:40:56;102748.44;;;22.27;40.29
32237;BME280;18726;44.732;10.550;2023-02-14T12:43:56;102740.06;;;21.93;37.15
32237;BME280;18726;44.732;10.550;2023-02-14T12:47:22;102734.25;;;21.49;39.60
32237;BME280;18726;44.732;10.550;2023-02-14T12:50:41;102725.53;;;21.01;38.17
32237;BME280;18726;44.732;10.550;2023-02-14T12:57:14;102711.53;;;20.90;39.27
32237;BME280;18726;44.732;10.550;2023-02-14T13:10:44;102679.69;;;20.35;42.47
32237;BME280;18726;44.732;10.550;2023-02-14T13:21:25;102671.03;;;20.37;43.12
32237;BME280;18726;44.732;10.550;2023-02-14T13:24:40;102667.63;;;20.24;41.65
32237;BME280;18726;44.732;10.550;2023-02-14T13:27:45;102659.00;;;20.26;44.70
32237;BME280;18726;44.732;10.550;2023-02-14T13:30:49;102644.56;;;20.13;43.12
32237;BME280;18726;44.732;10.550;2023-02-14T13:33:57;102651.81;;;20.02;40.91
32237;BME280;18726;44.732;10.550;2023-02-14T13:37:07;102642.47;;;19.87;42.62
32237;BME280;18726;44.732;10.550;2023-02-14T13:40:24;102634.91;;;19.84;44.92
32237;BME280;18726;44.732;10.550;2023-02-14T13:46:54;102627.19;;;19.93;47.18
32237;BME280;18726;44.732;10.550;2023-02-14T13:49:59;102629.81;;;19.86;41.92
32237;BME280;18726;44.732;10.550;2023-02-14T13:53:04;102627.28;;;19.77;48.01
32237;BME280;18726;44.732;10.550;2023-02-14T13:59:32;102615.41;;;19.22;45.24
32237;BME280;18726;44.732;10.550;2023-02-14T14:02:51;102620.09;;;19.06;46.24
32237;BME280;18726;44.732;10.550;2023-02-14T14:09:03;102599.53;;;19.00;48.77
32237;BME280;18726;44.732;10.550;2023-02-14T14:15:28;102604.97;;;18.53;45.44
32237;BME280;18726;44.732;10.550;2023-02-14T14:18:36;102603.47;;;18.40;47.46
32237;BME280;18726;44.732;10.550;2023-02-14T14:21:57;102597.72;;;18.45;51.54
32237;BME280;18726;44.732;10.550;2023-02-14T14:25:05;102587.72;;;18.68;48.34
32237;BME280;18726;44.732;10.550;2023-02-14T14:28:20;102591.09;;;18.62;46.13
32237;BME280;18726;44.732;10.550;2023-02-14T14:31:26;102582.97;;;18.53;46.62
32237;BME280;18726;44.732;10.550;2023-02-14T14:34:32;102580.13;;;18.49;48.00
32237;BME280;18726;44.732;10.550;2023-02-14T14:37:45;102579.16;;;18.42;50.68
32237;BME280;18726;44.732;10.550;2023-02-14T14:40:50;102583.75;;;18.38;49.23
32237;BME280;18726;44.732;10.550;2023-02-14T14:43:54;102587.97;;;18.19;45.15
32237;BME280;18726;44.732;10.550;2023-02-14T14:46:59;102584.25;;;18.12;48.90
32237;BME280;18726;44.732;10.550;2023-02-14T14:50:07;102579.38;;;17.93;46.70
32237;BME280;18726;44.732;10.550;2023-02-14T14:53:32;102573.09;;;17.93;54.54
32237;BME280;18726;44.732;10.550;2023-02-14T14:56:52;102574.78;;;17.97;55.57
32237;BME280;18726;44.732;10.550;2023-02-14T15:03:27;102575.00;;;18.04;56.58
32237;BME280;18726;44.732;10.550;2023-02-14T15:06:30;102569.19;;;17.94;51.35
32237;BME280;18726;44.732;10.550;2023-02-14T15:09:34;102568.78;;;17.79;56.56
32237;BME280;18726;44.732;10.550;2023-02-14T15:12:37;102567.75;;;17.84;59.41
32237;BME280;18726;44.732;10.550;2023-02-14T15:16:00;102564.63;;;17.58;49.17
32237;BME280;18726;44.732;10.550;2023-02-14T15:19:19;102561.47;;;17.31;55.34
32237;BME280;18726;44.732;10.550;2023-02-14T15:22:27;102555.03;;;17.39;64.37
32237;BME280;18726;44.732;10.550;2023-02-14T15:25:35;102551.94;;;17.41;59.25
32237;BME280;18726;44.732;10.550;2023-02-14T15:28:40;102547.63;;;17.28;55.67
32237;BME280;18726;44.732;10.550;2023-02-14T15:31:44;102550.22;;;17.36;66.21
32237;BME280;18726;44.732;10.550;2023-02-14T15:34:48;102541.75;;;17.41;65.91
32237;BME280;18726;44.732;10.550;2023-02-14T15:37:52;102554.34;;;17.42;68.93
32237;BME280;18726;44.732;10.550;2023-02-14T15:40:58;102547.94;;;17.38;65.32
32237;BME280;18726;44.732;10.550;2023-02-14T15:44:02;102544.63;;;17.33;63.31
32237;BME280;18726;44.732;10.550;2023-02-14T15:47:06;102546.50;;;17.16;63.23
32237;BME280;18726;44.732;10.550;2023-02-14T15:50:19;102538.38;;;17.08;69.37
32237;BME280;18726;44.732;10.550;2023-02-14T15:53:42;102544.13;;;17.03;70.73
32237;BME280;18726;44.732;10.550;2023-02-14T15:56:49;102542.97;;;16.92;67.40
32237;BME280;18726;44.732;10.550;2023-02-14T15:59:54;102546.16;;;16.81;69.52
32237;BME280;18726;44.732;10.550;2023-02-14T16:03:04;102547.09;;;16.73;75.01
32237;BME280;18726;44.732;10.550;2023-02-14T16:06:15;102545.72;;;16.67;75.38
32237;BME280;18726;44.732;10.550;2023-02-14T16:09:32;102548.41;;;16.55;79.78
32237;BME280;18726;44.732;10.550;2023-02-14T16:12:40;102546.69;;;16.50;79.56
32237;BME280;18726;44.732;10.550;2023-02-14T16:16:01;102536.97;;;16.41;79.56
32237;BME280;18726;44.732;10.550;2023-02-14T16:19:31;102541.75;;;16.32;80.66
32237;BME280;18726;44.732;10.550;2023-02-14T16:22:36;102538.75;;;16.25;82.84
32237;BME280;18726;44.732;10.550;2023-02-14T16:25:40;102538.75;;;16.12;84.45
32237;BME280;18726;44.732;10.550;2023-02-14T16:28:43;102537.09;;;15.99;86.05
32237;BME280;18726;44.732;10.550;2023-02-14T16:31:50;102542.31;;;15.92;86.92
32237;BME280;18726;44.732;10.550;2023-02-14T16:34:54;102538.72;;;15.79;87.21
32237;BME280;18726;44.732;10.550;2023-02-14T16:37:58;102535.59;;;15.69;86.95
32237;BME280;18726;44.732;10.550;2023-02-14T16:41:02;102534.91;;;15.51;87.88
32237;BME280;18726;44.732;10.550;2023-02-14T16:44:06;102526.81;;;15.34;83.79
32237;BME280;18726;44.732;10.550;2023-02-14T16:47:14;102537.09;;;15.16;85.97
32237;BME280;18726;44.732;10.550;2023-02-14T16:50:18;102530.13;;;14.98;83.75
32237;BME280;18726;44.732;10.550;2023-02-14T16:53:25;102532.47;;;14.78;81.89
32237;BME280;18726;44.732;10.550;2023-02-14T16:56:53;102539.25;;;14.43;80.09
32237;BME280;18726;44.732;10.550;2023-02-14T16:59:58;102542.03;;;14.08;78.83
32237;BME280;18726;44.732;10.550;2023-02-14T17:03:02;102541.22;;;13.91;77.88
32237;BME280;18726;44.732;10.550;2023-02-14T17:06:11;102552.16;;;13.65;82.67
32237;BME280;18726;44.732;10.550;2023-02-14T17:09:17;102547.00;;;13.89;100.00
32237;BME280;18726;44.732;10.550;2023-02-14T17:12:27;102551.84;;;13.66;82.21
32237;BME280;18726;44.732;10.550;2023-02-14T17:15:32;102560.34;;;13.39;83.90
32237;BME280;18726;44.732;10.550;2023-02-14T17:18:37;102549.28;;;13.27;90.31
32237;BME280;18726;44.732;10.550;2023-02-14T17:21:41;102554.81;;;13.13;87.21
32237;BME280;18726;44.732;10.550;2023-02-14T17:24:45;102554.28;;;12.94;85.00
32237;BME280;18726;44.732;10.550;2023-02-14T17:27:49;102556.66;;;12.87;92.31
32237;BME280;18726;44.732;10.550;2023-02-14T17:30:53;102555.63;;;13.13;100.00
32237;BME280;18726;44.732;10.550;2023-02-14T17:33:57;102551.00;;;13.31;100.00
32237;BME280;18726;44.732;10.550;2023-02-14T17:37:01;102557.75;;;13.34;97.30
32237;BME280;18726;44.732;10.550;2023-02-14T17:40:05;102561.50;;;12.90;91.31
32237;BME280;18726;44.732;10.550;2023-02-14T17:43:09;102561.13;;;12.82;100.00
32237;BME280;18726;44.732;10.550;2023-02-14T17:46:13;102556.31;;;12.79;100.00
32237;BME280;18726;44.732;10.550;2023-02-14T17:49:18;102568.03;;;12.49;92.83
32237;BME280;18726;44.732;10.550;2023-02-14T17:52:23;102567.00;;;11.83;89.37
32237;BME280;18726;44.732;10.550;2023-02-14T17:55:27;102565.13;;;10.93;88.56
32237;BME280;18726;44.732;10.550;2023-02-14T17:58:31;102560.38;;;10.25;89.79
32237;BME280;18726;44.732;10.550;2023-02-14T18:01:34;102567.38;;;9.93;93.74
32237;BME280;18726;44.732;10.550;2023-02-14T18:04:38;102572.38;;;9.86;100.00
32237;BME280;18726;44.732;10.550;2023-02-14T18:07:42;102571.84;;;9.84;100.00
32237;BME280;18726;44.732;10.550;2023-02-14T18:10:46;102576.06;;;9.76;100.00
32237;BME280;18726;44.732;10.550;2023-02-14T18:13:52;102577.53;;;9.69;100.00
32237;BME280;18726;44.732;10.550;2023-02-14T18:16:57;102570.03;;;9.61;100.00
32237;BME280;18726;44.732;10.550;2023-02-14T18:20:02;102571.06;;;9.65;100.00
32237;BME280;18726;44.732;10.550;2023-02-14T18:23:06;102576.34;;;9.75;100.00
32237;BME280;18726;44.732;10.550;2023-02-14T18:26:11;102580.16;;;9.93;100.00
32237;BME280;18726;44.732;10.550;2023-02-14T18:29:16;102575.31;;;10.08;100.00
32237;BME280;18726;44.732;10.550;2023-02-14T18:32:20;102576.59;;;10.11;97.35
32237;BME280;18726;44.732;10.550;2023-02-14T18:35:23;102584.03;;;10.05;95.67
32237;BME280;18726;44.732;10.550;2023-02-14T18:38:26;102582.56;;;9.94;98.10
32237;BME280;18726;44.732;10.550;2023-02-14T18:41:30;102577.31;;;9.65;100.00
32237;BME280;18726;44.732;10.550;2023-02-14T18:44:34;102589.38;;;9.54;100.00
32237;BME280;18726;44.732;10.550;2023-02-14T18:47:38;102583.16;;;9.54;100.00
32237;BME280;18726;44.732;10.550;2023-02-14T18:50:42;102580.53;;;9.48;100.00
32237;BME280;18726;44.732;10.550;2023-02-14T18:53:46;102582.16;;;9.50;100.00
32237;BME280;18726;44.732;10.550;2023-02-14T18:56:50;102581.47;;;9.39;100.00
32237;BME280;18726;44.732;10.550;2023-02-14T18:59:54;102585.41;;;9.04;100.00
32237;BME280;18726;44.732;10.550;2023-02-14T19:02:59;102589.66;;;8.91;100.00
32237;BME280;18726;44.732;10.550;2023-02-14T19:06:05;102588.31;;;8.89;100.00
32237;BME280;18726;44.732;10.550;2023-02-14T19:09:12;102577.09;;;8.71;100.00
32237;BME280;18726;44.732;10.550;2023-02-14T19:12:16;102581.84;;;8.61;100.00
32237;BME280;18726;44.732;10.550;2023-02-14T19:15:19;102585.00;;;8.39;100.00
32237;BME280;18726;44.732;10.550;2023-02-14T19:18:24;102583.63;;;8.07;100.00
32237;BME280;18726;44.732;10.550;2023-02-14T19:21:29;102584.84;;;7.86;100.00
32237;BME280;18726;44.732;10.550;2023-02-14T19:24:33;102583.88;;;7.72;100.00
32237;BME280;18726;44.732;10.550;2023-02-14T19:27:37;102582.78;;;7.73;100.00
32237;BME280;18726;44.732;10.550;2023-02-14T19:30:41;102581.72;;;7.69;100.00
32237;BME280;18726;44.732;10.550;2023-02-14T19:33:46;102576.19;;;7.89;100.00
32237;BME280;18726;44.732;10.550;2023-02-14T19:36:51;102587.44;;;8.06;100.00
32237;BME280;18726;44.732;10.550;2023-02-14T19:39:55;102579.81;;;8.08;100.00
32237;BME280;18726;44.732;10.550;2023-02-14T19:42:58;102579.06;;;7.64;100.00
32237;BME280;18726;44.732;10.550;2023-02-14T19:46:03;102581.59;;;7.45;100.00
32237;BME280;18726;44.732;10.550;2023-02-14T19:49:14;102578.41;;;7.28;100.00
32237;BME280;18726;44.732;10.550;2023-02-14T19:52:18;102584.66;;;7.23;100.00
32237;BME280;18726;44.732;10.550;2023-02-14T19:55:22;102574.41;;;7.20;100.00
32237;BME280;18726;44.732;10.550;2023-02-14T19:58:26;102586.41;;;6.89;100.00
32237;BME280;18726;44.732;10.550;2023-02-14T20:01:38;102579.69;;;6.76;100.00
32237;BME280;18726;44.732;10.550;2023-02-14T20:04:43;102578.59;;;6.72;100.00
32237;BME280;18726;44.732;10.550;2023-02-14T20:07:47;102576.16;;;6.81;100.00
32237;BME280;18726;44.732;10.550;2023-02-14T20:10:54;102575.34;;;6.80;100.00
32237;BME280;18726;44.732;10.550;2023-02-14T20:13:58;102575.09;;;6.71;100.00
32237;BME280;18726;44.732;10.550;2023-02-14T20:17:04;102575.66;;;6.68;100.00
32237;BME280;18726;44.732;10.550;2023-02-14T20:20:09;102579.94;;;6.90;100.00
32237;BME280;18726;44.732;10.550;2023-02-14T20:23:16;102585.91;;;6.76;100.00
32237;BME280;18726;44.732;10.550;2023-02-14T20:26:19;102582.16;;;6.62;100.00
32237;BME280;18726;44.732;10.550;2023-02-14T20:29:24;102586.47;;;6.63;100.00
32237;BME280;18726;44.732;10.550;2023-02-14T20:32:28;102591.28;;;6.76;100.00
32237;BME280;18726;44.732;10.550;2023-02-14T20:35:32;102587.19;;;6.94;100.00
32237;BME280;18726;44.732;10.550;2023-02-14T20:38:40;102586.38;;;6.99;100.00
32237;BME280;18726;44.732;10.550;2023-02-14T20:41:44;102594.47;;;6.99;100.00
32237;BME280;18726;44.732;10.550;2023-02-14T20:44:52;102585.88;;;6.87;100.00
32237;BME280;18726;44.732;10.550;2023-02-14T20:47:56;102592.38;;;6.75;100.00
32237;BME280;18726;44.732;10.550;2023-02-14T20:51:14;102588.09;;;6.49;100.00
32237;BME280;18726;44.732;10.550;2023-02-14T20:54:20;102592.44;;;6.20;100.00
32237;BME280;18726;44.732;10.550;2023-02-14T20:57:24;102583.78;;;6.07;100.00
32237;BME280;18726;44.732;10.550;2023-02-14T21:00:28;102582.72;;;6.03;100.00
32237;BME280;18726;44.732;10.550;2023-02-14T21:03:32;102582.72;;;6.03;100.00
32237;BME280;18726;44.732;10.550;2023-02-14T21:06:38;102581.66;;;6.04;100.00
32237;BME280;18726;44.732;10.550;2023-02-14T21:09:41;102575.44;;;5.99;100.00
32237;BME280;18726;44.732;10.550;2023-02-14T21:12:45;102573.53;;;5.89;100.00
32237;BME280;18726;44.732;10.550;2023-02-14T21:15:50;102567.88;;;5.91;100.00
32237;BME280;18726;44.732;10.550;2023-02-14T21:18:56;102563.78;;;5.88;100.00
32237;BME280;18726;44.732;10.550;2023-02-14T21:22:03;102574.56;;;5.78;100.00
32237;BME280;18726;44.732;10.550;2023-02-14T21:25:07;102560.00;;;5.69;100.00
32237;BME280;18726;44.732;10.550;2023-02-14T21:28:11;102570.75;;;5.64;100.00
32237;BME280;18726;44.732;10.550;2023-02-14T21:31:17;102570.19;;;5.57;100.00
32237;BME280;18726;44.732;10.550;2023-02-14T21:34:23;102564.78;;;5.52;100.00
32237;BME280;18726;44.732;10.550;2023-02-14T21:37:27;102569.66;;;5.55;100.00
32237;BME280;18726;44.732;10.550;2023-02-14T21:40:32;102578.81;;;5.43;100.00
32237;BME280;18726;44.732;10.550;2023-02-14T21:43:38;102574.03;;;5.71;100.00
32237;BME280;18726;44.732;10.550;2023-02-14T21:46:41;102579.47;;;5.91;100.00
32237;BME280;18726;44.732;10.550;2023-02-14T21:49:45;102584.00;;;5.86;100.00
32237;BME280;18726;44.732;10.550;2023-02-14T21:53:07;102592.41;;;5.89;100.00
32237;BME280;18726;44.732;10.550;2023-02-14T21:56:12;102591.34;;;5.95;100.00
32237;BME280;18726;44.732;10.550;2023-02-14T21:59:19;102589.66;;;5.84;100.00
32237;BME280;18726;44.732;10.550;2023-02-14T22:02:23;102582.72;;;5.98;100.00
32237;BME280;18726;44.732;10.550;2023-02-14T22:05:26;102590.81;;;6.14;100.00
32237;BME280;18726;44.732;10.550;2023-02-14T22:08:31;102589.19;;;6.43;100.00
32237;BME280;18726;44.732;10.550;2023-02-14T22:11:35;102603.97;;;6.91;100.00
32237;BME280;18726;44.732;10.550;2023-02-14T22:14:39;102591.34;;;6.56;100.00
32237;BME280;18726;44.732;10.550;2023-02-14T22:17:42;102585.94;;;6.46;100.00
32237;BME280;18726;44.732;10.550;2023-02-14T22:20:46;102587.06;;;6.35;100.00
32237;BME280;18726;44.732;10.550;2023-02-14T22:23:50;102582.72;;;6.24;100.00
32237;BME280;18726;44.732;10.550;2023-02-14T22:26:54;102591.38;;;6.26;100.00
32237;BME280;18726;44.732;10.550;2023-02-14T22:29:58;102595.94;;;6.25;100.00
32237;BME280;18726;44.732;10.550;2023-02-14T22:33:01;102585.44;;;6.03;100.00
32237;BME280;18726;44.732;10.550;2023-02-14T22:36:06;102578.88;;;5.74;100.00
32237;BME280;18726;44.732;10.550;2023-02-14T22:39:12;102583.69;;;5.62;100.00
32237;BME280;18726;44.732;10.550;2023-02-14T22:42:16;102588.50;;;5.50;100.00
32237;BME280;18726;44.732;10.550;2023-02-14T22:45:20;102587.41;;;5.35;100.00
32237;BME280;18726;44.732;10.550;2023-02-14T22:48:23;102582.47;;;5.22;100.00
32237;BME280;18726;44.732;10.550;2023-02-14T22:51:29;102582.25;;;5.29;100.00
32237;BME280;18726;44.732;10.550;2023-02-14T22:54:33;102576.63;;;5.35;100.00
32237;BME280;18726;44.732;10.550;2023-02-14T22:57:37;102579.84;;;5.37;100.00
32237;BME280;18726;44.732;10.550;2023-02-14T23:00:42;102580.66;;;5.33;100.00
32237;BME280;18726;44.732;10.550;2023-02-14T23:03:46;102577.13;;;5.27;100.00
32237;BME280;18726;44.732;10.550;2023-02-14T23:06:51;102579.56;;;5.29;100.00
32237;BME280;18726;44.732;10.550;2023-02-14T23:09:55;102581.94;;;5.15;100.00
32237;BME280;18726;44.732;10.550;2023-02-14T23:12:59;102581.88;;;5.05;100.00
32237;BME280;18726;44.732;10.550;2023-02-14T23:16:22;102582.47;;;5.12;100.00
32237;BME280;18726;44.732;10.550;2023-02-14T23:19:44;102573.88;;;5.25;100.00
32237;BME280;18726;44.732;10.550;2023-02-14T23:23:07;102577.63;;;5.24;100.00
32237;BME280;18726;44.732;10.550;2023-02-14T23:26:10;102576.03;;;5.23;100.00
32237;BME280;18726;44.732;10.550;2023-02-14T23:29:14;102572.31;;;5.34;100.00
32237;BME280;18726;44.732;10.550;2023-02-14T23:32:18;102578.75;;;5.28;100.00
32237;BME280;18726;44.732;10.550;2023-02-14T23:35:22;102574.91;;;5.09;100.00
32237;BME280;18726;44.732;10.550;2023-02-14T23:38:26;102565.09;;;4.88;100.00
32237;BME280;18726;44.732;10.550;2023-02-14T23:41:30;102571.75;;;4.75;100.00
32237;BME280;18726;44.732;10.550;2023-02-14T23:44:52;102559.66;;;4.78;100.00
32237;BME280;18726;44.732;10.550;2023-02-14T23:48:00;102569.06;;;4.75;100.00
32237;BME280;18726;44.732;10.550;2023-02-14T23:51:04;102559.59;;;4.67;100.00
32237;BME280;18726;44.732;10.550;2023-02-14T23:54:08;102562.84;;;4.69;100.00
32237;BME280;18726;44.732;10.550;2023-02-14T23:57:12;102549.75;;;4.93;100.00
